createdAt,value
2019-04-28T00:01:55.901Z,11.73
2019-04-28T00:04:26.515Z,11.72
2019-04-28T00:06:57.606Z,11.76
2019-04-28T00:09:31.248Z,11.70
2019-04-28T00:12:02.510Z,11.67
2019-04-28T00:14:33.136Z,11.66
2019-04-28T00:17:04.425Z,11.67
2019-04-28T00:19:34.975Z,11.69
2019-04-28T00:22:27.781Z,11.68
2019-04-28T00:25:21.469Z,11.71
2019-04-28T00:27:52.767Z,11.72
2019-04-28T00:30:26.895Z,11.71
2019-04-28T00:32:57.755Z,11.67
2019-04-28T00:35:28.582Z,11.67
2019-04-28T00:37:59.395Z,11.72
2019-04-28T00:40:31.634Z,11.76
2019-04-28T00:43:03.433Z,11.80
2019-04-28T00:45:33.940Z,11.85
2019-04-28T00:48:04.720Z,11.87
2019-04-28T00:50:35.372Z,11.89
2019-04-28T00:53:06.088Z,11.92
2019-04-28T00:55:36.835Z,11.97
2019-04-28T00:58:07.692Z,11.98
2019-04-28T01:00:41.416Z,11.99
2019-04-28T01:03:12.222Z,12.04
2019-04-28T01:05:42.742Z,12.10
2019-04-28T01:08:13.174Z,12.06
2019-04-28T01:10:43.534Z,11.99
2019-04-28T01:13:13.853Z,12.01
2019-04-28T01:16:02.309Z,12.03
2019-04-28T01:19:03.933Z,12.10
2019-04-28T01:21:51.977Z,12.11
2019-04-28T01:24:23.280Z,12.10
2019-04-28T01:26:55.433Z,12.03
2019-04-28T01:29:25.850Z,12.03
2019-04-28T01:32:15.442Z,12.07
2019-04-28T01:34:45.851Z,11.88
2019-04-28T01:37:16.308Z,11.99
2019-04-28T01:39:46.879Z,11.93
2019-04-28T01:42:17.209Z,11.89
2019-04-28T01:44:49.504Z,11.96
2019-04-28T01:47:20.531Z,12.06
2019-04-28T01:49:51.041Z,12.13
2019-04-28T01:52:21.498Z,12.19
2019-04-28T01:54:52.037Z,12.08
2019-04-28T01:57:22.577Z,11.89
2019-04-28T01:59:53.235Z,11.84
2019-04-28T02:02:24.207Z,11.83
2019-04-28T02:04:54.850Z,11.88
2019-04-28T02:07:25.714Z,11.90
2019-04-28T02:09:56.433Z,12.08
2019-04-28T02:12:27.143Z,12.15
2019-04-28T02:15:00.911Z,12.27
2019-04-28T02:17:31.617Z,12.34
2019-04-28T02:20:02.211Z,12.41
2019-04-28T02:22:44.457Z,12.56
2019-04-28T02:25:16.916Z,12.66
2019-04-28T02:27:47.516Z,12.86
2019-04-28T02:30:20.281Z,13.05
2019-04-28T02:32:51.902Z,13.27
2019-04-28T02:35:22.890Z,13.56
2019-04-28T02:37:54.215Z,13.76
2019-04-28T02:40:24.916Z,13.97
2019-04-28T02:42:55.556Z,14.17
2019-04-28T02:45:26.368Z,14.28
2019-04-28T02:48:01.125Z,14.38
2019-04-28T02:50:41.788Z,14.51
2019-04-28T02:53:20.876Z,14.56
2019-04-28T02:55:51.447Z,14.64
2019-04-28T02:58:22.671Z,14.75
2019-04-28T03:01:06.729Z,14.73
2019-04-28T03:03:25.875Z,14.72
2019-04-28T03:05:56.601Z,14.75
2019-04-28T03:08:27.259Z,14.78
2019-04-28T03:11:00.618Z,14.91
2019-04-28T03:13:31.127Z,14.99
2019-04-28T03:16:02.331Z,15.05
2019-04-28T03:18:33.206Z,15.12
2019-04-28T03:21:04.596Z,15.17
2019-04-28T03:23:35.584Z,15.18
2019-04-28T03:26:24.841Z,15.17
2019-04-28T03:29:04.507Z,15.16
2019-04-28T03:32:15.934Z,15.20
2019-04-28T03:34:43.547Z,15.24
2019-04-28T03:37:14.242Z,15.20
2019-04-28T03:39:54.115Z,15.27
2019-04-28T03:42:24.817Z,15.27
2019-04-28T03:44:57.174Z,15.27
2019-04-28T03:47:30.852Z,15.24
2019-04-28T03:50:00.574Z,15.28
2019-04-28T03:52:31.906Z,15.32
2019-04-28T03:55:02.912Z,15.26
2019-04-28T03:57:33.621Z,15.33
2019-04-28T04:00:05.489Z,15.19
2019-04-28T04:02:35.988Z,15.12
2019-04-28T04:05:06.954Z,14.71
2019-04-28T04:07:42.580Z,14.53
2019-04-28T04:10:16.985Z,14.42
2019-04-28T04:12:52.333Z,14.43
2019-04-28T04:15:54.178Z,14.59
2019-04-28T04:18:31.063Z,14.76
2019-04-28T04:21:02.042Z,15.07
2019-04-28T04:23:32.834Z,15.31
2019-04-28T04:26:03.857Z,15.59
2019-04-28T04:28:34.472Z,15.87
2019-04-28T04:31:05.886Z,16.15
2019-04-28T04:33:36.370Z,16.30
2019-04-28T04:36:07.107Z,16.61
2019-04-28T04:38:40.151Z,16.86
2019-04-28T04:41:11.373Z,17.46
2019-04-28T04:43:42.042Z,18.43
2019-04-28T04:46:16.826Z,19.10
2019-04-28T04:48:50.568Z,19.33
2019-04-28T04:51:21.529Z,19.50
2019-04-28T04:53:52.879Z,20.07
2019-04-28T04:56:23.713Z,20.46
2019-04-28T04:58:54.608Z,20.19
2019-04-28T05:01:50.385Z,21.13
2019-04-28T05:04:29.603Z,20.98
2019-04-28T05:06:59.957Z,20.69
2019-04-28T05:09:31.217Z,20.25
2019-04-28T05:12:02.182Z,20.05
2019-04-28T05:14:32.819Z,19.00
2019-04-28T05:17:03.715Z,18.45
2019-04-28T05:19:34.582Z,18.69
2019-04-28T05:22:05.638Z,18.64
2019-04-28T05:24:46.271Z,18.75
2019-04-28T05:27:17.350Z,18.68
2019-04-28T05:29:51.189Z,19.49
2019-04-28T05:32:20.821Z,20.86
2019-04-28T05:34:52.954Z,21.14
2019-04-28T05:37:23.672Z,21.79
2019-04-28T05:39:54.457Z,22.53
2019-04-28T05:42:25.266Z,24.34
2019-04-28T05:44:59.803Z,23.81
2019-04-28T05:47:31.692Z,25.21
2019-04-28T05:50:21.412Z,26.27
2019-04-28T05:53:00.752Z,25.77
2019-04-28T05:55:50.162Z,24.71
2019-04-28T05:58:30.260Z,24.45
2019-04-28T06:01:20.410Z,24.16
2019-04-28T06:03:51.022Z,23.30
2019-04-28T06:06:23.457Z,22.96
2019-04-28T06:09:16.018Z,23.41
2019-04-28T06:11:46.684Z,24.65
2019-04-28T06:14:17.232Z,24.49
2019-04-28T06:16:48.079Z,24.27
2019-04-28T06:19:20.205Z,24.80
2019-04-28T06:21:50.874Z,24.96
2019-04-28T06:24:21.572Z,24.99
2019-04-28T06:26:52.400Z,25.32
2019-04-28T06:29:24.113Z,25.73
2019-04-28T06:31:55.053Z,25.16
2019-04-28T06:34:26.756Z,24.56
2019-04-28T06:36:58.294Z,25.92
2019-04-28T06:39:30.724Z,28.22
2019-04-28T06:42:02.223Z,28.36
2019-04-28T06:44:32.838Z,27.79
2019-04-28T06:47:03.724Z,26.50
2019-04-28T06:49:34.391Z,26.04
2019-04-28T06:52:05.253Z,25.21
2019-04-28T06:54:38.877Z,25.70
2019-04-28T06:57:10.528Z,26.99
2019-04-28T06:59:41.715Z,28.29
2019-04-28T07:02:12.542Z,29.19
2019-04-28T07:05:01.193Z,30.69
2019-04-28T07:07:22.538Z,30.84
2019-04-28T07:09:53.238Z,30.84
2019-04-28T07:12:23.761Z,31.05
2019-04-28T07:14:55.451Z,30.09
2019-04-28T07:17:26.226Z,29.19
2019-04-28T07:20:08.050Z,28.54
2019-04-28T07:22:38.817Z,28.24
2019-04-28T07:25:09.709Z,27.47
2019-04-28T07:27:40.661Z,26.29
2019-04-28T07:30:11.617Z,25.36
2019-04-28T07:32:43.428Z,25.13
2019-04-28T07:35:14.225Z,24.83
2019-04-28T07:37:46.012Z,24.77
2019-04-28T07:40:17.365Z,24.43
2019-04-28T07:42:48.055Z,23.94
2019-04-28T07:45:18.940Z,23.68
2019-04-28T07:47:49.989Z,23.55
2019-04-28T07:50:24.952Z,23.65
2019-04-28T07:53:01.874Z,23.66
2019-04-28T07:55:32.830Z,23.83
2019-04-28T07:58:03.706Z,23.85
2019-04-28T08:00:34.858Z,23.96
2019-04-28T08:03:05.641Z,23.84
2019-04-28T08:05:36.510Z,23.32
2019-04-28T08:08:07.504Z,23.40
2019-04-28T08:10:38.539Z,23.27
2019-04-28T08:13:09.430Z,22.90
2019-04-28T08:15:40.221Z,22.81
2019-04-28T08:18:10.799Z,22.91
2019-04-28T08:20:41.365Z,22.83
2019-04-28T08:23:13.623Z,22.89
2019-04-28T08:25:44.751Z,22.92
2019-04-28T08:28:15.726Z,22.85
2019-04-28T08:30:47.649Z,22.90
2019-04-28T08:33:37.330Z,22.93
2019-04-28T08:36:08.055Z,23.13
2019-04-28T08:38:38.743Z,22.98
2019-04-28T08:41:09.630Z,22.86
2019-04-28T08:43:40.541Z,22.86
2019-04-28T08:46:11.412Z,22.89
2019-04-28T08:48:42.312Z,23.08
2019-04-28T08:51:13.007Z,23.07
2019-04-28T08:53:43.921Z,23.08
2019-04-28T08:56:14.682Z,22.96
2019-04-28T08:58:45.512Z,22.75
2019-04-28T09:01:16.121Z,22.75
2019-04-28T09:03:46.579Z,22.76
2019-04-28T09:06:17.275Z,22.93
2019-04-28T09:08:47.785Z,23.00
2019-04-28T09:11:18.645Z,23.32
2019-04-28T09:13:52.461Z,23.59
2019-04-28T09:16:22.995Z,23.63
2019-04-28T09:18:53.701Z,23.73
2019-04-28T09:21:24.401Z,23.61
2019-04-28T09:23:56.606Z,23.55
2019-04-28T09:26:27.571Z,23.40
2019-04-28T09:28:59.342Z,23.39
2019-04-28T09:31:30.168Z,23.27
2019-04-28T09:34:00.940Z,23.24
2019-04-28T09:36:32.114Z,23.13
2019-04-28T09:39:06.412Z,23.11
2019-04-28T09:42:15.819Z,23.18
2019-04-28T09:44:46.676Z,23.24
2019-04-28T09:47:17.352Z,23.19
2019-04-28T09:49:48.253Z,23.10
2019-04-28T09:52:19.528Z,22.95
2019-04-28T09:54:51.166Z,22.86
2019-04-28T09:57:21.915Z,22.89
2019-04-28T09:59:52.534Z,22.90
2019-04-28T10:02:23.254Z,22.86
2019-04-28T10:04:53.924Z,22.96
2019-04-28T10:07:24.529Z,23.03
2019-04-28T10:09:55.515Z,23.09
2019-04-28T10:12:27.480Z,23.11
2019-04-28T10:14:58.686Z,23.18
2019-04-28T10:17:30.171Z,23.20
2019-04-28T10:20:00.983Z,23.20
2019-04-28T10:22:31.713Z,23.23
2019-04-28T10:25:02.882Z,23.28
2019-04-28T10:27:33.600Z,23.41
2019-04-28T10:30:04.795Z,23.44
2019-04-28T10:32:36.435Z,23.51
2019-04-28T10:35:07.630Z,23.53
2019-04-28T10:37:38.338Z,23.43
2019-04-28T10:40:19.094Z,23.44
2019-04-28T10:42:49.578Z,23.43
2019-04-28T10:45:23.340Z,23.46
2019-04-28T10:47:54.132Z,23.52
2019-04-28T10:50:25.164Z,23.79
2019-04-28T10:52:56.087Z,23.96
2019-04-28T10:55:26.590Z,24.17
2019-04-28T10:57:57.570Z,24.17
2019-04-28T11:00:30.641Z,24.20
2019-04-28T11:03:01.379Z,24.08
2019-04-28T11:05:39.422Z,24.03
2019-04-28T11:08:18.040Z,23.97
2019-04-28T11:10:48.684Z,23.95
2019-04-28T11:13:19.430Z,23.42
2019-04-28T11:15:51.251Z,22.72
2019-04-28T11:18:21.979Z,22.18
2019-04-28T11:20:52.730Z,22.04
2019-04-28T11:23:23.401Z,21.46
2019-04-28T11:25:54.165Z,20.94
2019-04-28T11:28:24.743Z,20.65
2019-04-28T11:30:55.699Z,20.54
2019-04-28T11:34:01.383Z,19.86
2019-04-28T11:36:31.966Z,19.26
2019-04-28T11:39:03.251Z,19.33
2019-04-28T11:41:33.997Z,19.38
2019-04-28T11:44:04.943Z,19.38
2019-04-28T11:46:35.547Z,19.51
2019-04-28T11:49:06.341Z,19.60
2019-04-28T11:51:37.336Z,19.51
2019-04-28T11:54:08.339Z,19.50
2019-04-28T11:56:41.570Z,19.44
2019-04-28T11:59:11.444Z,19.42
2019-04-28T12:01:42.416Z,19.50
2019-04-28T12:04:14.397Z,19.46
2019-04-28T12:06:45.121Z,19.44
2019-04-28T12:09:46.743Z,19.48
2019-04-28T12:12:26.104Z,19.49
2019-04-28T12:15:04.947Z,19.51
2019-04-28T12:17:46.638Z,19.29
2019-04-28T12:20:22.606Z,19.50
2019-04-28T12:22:53.247Z,19.56
2019-04-28T12:25:23.905Z,19.59
2019-04-28T12:27:56.114Z,19.56
2019-04-28T12:30:26.705Z,19.55
2019-04-28T12:32:57.555Z,19.57
2019-04-28T12:35:28.119Z,19.67
2019-04-28T12:37:58.806Z,19.63
2019-04-28T12:40:29.547Z,19.74
2019-04-28T12:43:00.138Z,19.78
2019-04-28T12:45:35.310Z,19.86
2019-04-28T12:48:03.471Z,19.94
2019-04-28T12:50:39.575Z,19.96
2019-04-28T12:53:11.440Z,19.90
2019-04-28T12:55:42.301Z,19.69
2019-04-28T12:58:13.038Z,19.70
2019-04-28T13:01:15.090Z,19.72
2019-04-28T13:04:01.890Z,19.69
2019-04-28T13:06:32.810Z,19.44
2019-04-28T13:09:04.229Z,19.35
2019-04-28T13:11:38.051Z,19.47
2019-04-28T13:14:08.585Z,19.47
2019-04-28T13:16:39.493Z,19.57
2019-04-28T13:19:10.199Z,19.87
2019-04-28T13:21:40.896Z,20.09
2019-04-28T13:24:12.797Z,20.19
2019-04-28T13:26:43.701Z,20.23
2019-04-28T13:29:14.581Z,20.16
2019-04-28T13:31:45.156Z,20.29
2019-04-28T13:34:18.151Z,20.29
2019-04-28T13:36:48.966Z,20.41
2019-04-28T13:39:26.603Z,20.61
2019-04-28T13:41:57.542Z,20.78
2019-04-28T13:44:46.054Z,20.76
2019-04-28T13:47:16.821Z,20.65
2019-04-28T13:49:53.773Z,20.52
2019-04-28T13:52:24.476Z,20.13
2019-04-28T13:55:00.839Z,20.05
2019-04-28T13:57:31.691Z,19.91
2019-04-28T14:00:04.426Z,19.80
2019-04-28T14:02:53.973Z,19.34
2019-04-28T14:05:42.816Z,19.28
2019-04-28T14:08:14.755Z,19.07
2019-04-28T14:10:45.386Z,19.02
2019-04-28T14:13:16.234Z,19.19
2019-04-28T14:15:48.601Z,19.23
2019-04-28T14:18:19.486Z,19.16
2019-04-28T14:20:50.083Z,19.09
2019-04-28T14:23:22.256Z,18.88
2019-04-28T14:25:53.078Z,18.80
2019-04-28T14:28:24.122Z,18.58
2019-04-28T14:30:54.829Z,18.40
2019-04-28T14:33:25.429Z,18.42
2019-04-28T14:35:56.000Z,18.34
2019-04-28T14:38:26.468Z,18.24
2019-04-28T14:41:17.146Z,18.01
2019-04-28T14:43:47.889Z,17.85
2019-04-28T14:46:20.273Z,17.77
2019-04-28T14:48:51.060Z,17.56
2019-04-28T14:51:22.000Z,17.57
2019-04-28T14:53:53.682Z,17.53
2019-04-28T14:56:24.816Z,17.45
2019-04-28T14:58:55.574Z,17.46
2019-04-28T15:01:48.351Z,17.53
2019-04-28T15:04:29.654Z,17.65
2019-04-28T15:07:04.889Z,17.78
2019-04-28T15:09:57.845Z,17.94
2019-04-28T15:12:28.462Z,17.91
2019-04-28T15:14:59.109Z,18.00
2019-04-28T15:17:30.057Z,18.12
2019-04-28T15:20:01.084Z,18.27
2019-04-28T15:22:34.462Z,18.42
2019-04-28T15:25:06.428Z,18.51
2019-04-28T15:27:37.475Z,18.61
2019-04-28T15:30:08.353Z,18.69
2019-04-28T15:32:39.334Z,18.72
2019-04-28T15:35:10.165Z,18.87
2019-04-28T15:37:42.279Z,18.94
2019-04-28T15:40:13.816Z,19.06
2019-04-28T15:42:44.705Z,19.08
2019-04-28T15:45:17.458Z,19.05
2019-04-28T15:47:48.175Z,19.24
2019-04-28T15:50:19.704Z,19.37
2019-04-28T15:52:51.873Z,19.44
2019-04-28T15:55:28.478Z,19.49
2019-04-28T15:58:00.822Z,19.55
2019-04-28T16:00:31.440Z,19.49
2019-04-28T16:03:02.116Z,19.57
2019-04-28T16:05:32.851Z,19.59
2019-04-28T16:08:04.763Z,19.55
2019-04-28T16:10:36.991Z,19.40
2019-04-28T16:13:08.598Z,19.24
2019-04-28T16:15:40.269Z,19.20
2019-04-28T16:18:10.998Z,19.24
2019-04-28T16:20:41.857Z,19.18
2019-04-28T16:23:12.388Z,19.16
2019-04-28T16:25:43.085Z,19.14
2019-04-28T16:28:13.939Z,19.09
2019-04-28T16:30:44.714Z,19.09
2019-04-28T16:33:16.577Z,19.10
2019-04-28T16:35:47.168Z,19.09
2019-04-28T16:38:19.071Z,19.07
2019-04-28T16:41:04.863Z,18.93
2019-04-28T16:43:57.742Z,18.91
2019-04-28T16:46:28.401Z,18.87
2019-04-28T16:48:59.270Z,18.80
2019-04-28T16:51:30.447Z,18.71
2019-04-28T16:54:01.580Z,18.58
2019-04-28T16:56:55.348Z,18.54
2019-04-28T16:59:51.309Z,18.51
2019-04-28T17:02:40.665Z,18.43
2019-04-28T17:05:12.431Z,18.13
2019-04-28T17:07:52.345Z,18.07
2019-04-28T17:10:15.734Z,18.01
2019-04-28T17:12:47.196Z,17.91
2019-04-28T17:15:17.962Z,17.81
2019-04-28T17:17:48.857Z,17.70
2019-04-28T17:20:20.339Z,17.61
2019-04-28T17:22:51.020Z,17.45
2019-04-28T17:25:21.840Z,17.32
2019-04-28T17:27:52.953Z,17.23
2019-04-28T17:30:23.739Z,17.13
2019-04-28T17:32:54.631Z,17.06
2019-04-28T17:35:25.636Z,17.00
2019-04-28T17:38:06.354Z,16.90
2019-04-28T17:40:30.086Z,16.82
2019-04-28T17:43:00.986Z,16.72
2019-04-28T17:45:33.744Z,16.61
2019-04-28T17:48:13.903Z,16.53
2019-04-28T17:50:45.389Z,16.50
2019-04-28T17:53:16.481Z,16.37
2019-04-28T17:55:47.264Z,16.32
2019-04-28T17:58:17.873Z,16.25
2019-04-28T18:01:11.593Z,16.18
2019-04-28T18:03:52.643Z,16.11
2019-04-28T18:06:24.747Z,15.94
2019-04-28T18:08:55.767Z,15.92
2019-04-28T18:11:26.816Z,15.90
2019-04-28T18:13:57.440Z,15.95
2019-04-28T18:16:53.147Z,15.96
2019-04-28T18:19:24.318Z,15.94
2019-04-28T18:21:55.105Z,15.94
2019-04-28T18:24:25.987Z,15.80
2019-04-28T18:26:56.907Z,15.89
2019-04-28T18:29:27.840Z,15.96
2019-04-28T18:32:35.435Z,15.93
2019-04-28T18:35:15.893Z,15.94
2019-04-28T18:38:03.982Z,15.97
2019-04-28T18:41:03.270Z,16.10
2019-04-28T18:43:52.838Z,16.15
2019-04-28T18:46:28.780Z,16.20
2019-04-28T18:49:01.152Z,16.29
2019-04-28T18:51:32.461Z,16.37
2019-04-28T18:54:03.335Z,16.36
2019-04-28T18:56:34.089Z,16.32
2019-04-28T18:59:04.806Z,16.30
2019-04-28T19:02:00.434Z,16.30
2019-04-28T19:04:31.298Z,16.23
2019-04-28T19:07:05.179Z,16.19
2019-04-28T19:09:59.412Z,16.16
2019-04-28T19:12:40.762Z,16.10
2019-04-28T19:15:40.175Z,16.16
2019-04-28T19:18:19.499Z,16.12
2019-04-28T19:20:50.506Z,16.17
2019-04-28T19:23:21.284Z,16.20
2019-04-28T19:25:51.939Z,16.25
2019-04-28T19:28:22.910Z,16.24
2019-04-28T19:30:53.729Z,16.23
2019-04-28T19:33:24.537Z,16.22
2019-04-28T19:35:55.621Z,16.18
2019-04-28T19:38:26.318Z,16.30
2019-04-28T19:40:59.357Z,16.34
2019-04-28T19:43:31.624Z,16.26
2019-04-28T19:46:05.347Z,16.14
2019-04-28T19:48:37.389Z,15.99
2019-04-28T19:51:11.761Z,15.93
2019-04-28T19:53:42.900Z,15.78
2019-04-28T19:56:24.295Z,15.68
2019-04-28T19:59:03.639Z,15.63
2019-04-28T20:01:34.485Z,15.61
2019-04-28T20:04:05.300Z,15.62
2019-04-28T20:06:36.292Z,15.63
2019-04-28T20:09:07.935Z,15.68
2019-04-28T20:11:38.822Z,15.77
2019-04-28T20:14:09.858Z,15.82
2019-04-28T20:16:41.911Z,15.83
2019-04-28T20:19:12.642Z,15.87
2019-04-28T20:21:43.438Z,15.91
2019-04-28T20:24:14.458Z,15.90
2019-04-28T20:26:45.290Z,15.89
2019-04-28T20:29:16.199Z,15.87
2019-04-28T20:31:46.955Z,15.81
2019-04-28T20:34:18.075Z,15.77
2019-04-28T20:37:08.446Z,15.71
2019-04-28T20:39:39.220Z,15.63
2019-04-28T20:42:27.338Z,15.53
2019-04-28T20:44:58.283Z,15.46
2019-04-28T20:47:28.954Z,15.36
2019-04-28T20:49:59.895Z,15.33
2019-04-28T20:52:31.552Z,15.28
2019-04-28T20:55:02.192Z,15.22
2019-04-28T20:57:32.830Z,15.19
2019-04-28T21:00:05.184Z,15.14
2019-04-28T21:02:35.978Z,15.11
2019-04-28T21:05:07.095Z,15.08
2019-04-28T21:07:37.923Z,15.09
2019-04-28T21:10:09.061Z,15.15
2019-04-28T21:12:40.982Z,15.19
2019-04-28T21:15:11.773Z,15.22
2019-04-28T21:17:42.619Z,15.22
2019-04-28T21:20:13.457Z,15.26
2019-04-28T21:22:45.535Z,15.30
2019-04-28T21:25:16.463Z,15.33
2019-04-28T21:27:46.992Z,15.31
2019-04-28T21:30:17.905Z,15.30
2019-04-28T21:32:49.085Z,15.31
2019-04-28T21:35:19.776Z,15.31
2019-04-28T21:37:51.099Z,15.28
2019-04-28T21:40:22.170Z,15.25
2019-04-28T21:43:11.717Z,15.23
2019-04-28T21:46:04.263Z,15.24
2019-04-28T21:48:41.433Z,15.27
2019-04-28T21:51:12.436Z,15.35
2019-04-28T21:53:43.236Z,15.42
2019-04-28T21:56:13.895Z,15.48
2019-04-28T21:58:45.106Z,15.25
2019-04-28T22:01:19.392Z,15.70
2019-04-28T22:03:50.048Z,15.76
2019-04-28T22:06:20.746Z,15.84
2019-04-28T22:08:51.503Z,15.95
2019-04-28T22:11:22.312Z,15.99
2019-04-28T22:13:52.987Z,16.01
2019-04-28T22:16:24.017Z,15.98
2019-04-28T22:18:54.751Z,16.03
2019-04-28T22:21:25.476Z,16.02
2019-04-28T22:24:24.389Z,16.05
2019-04-28T22:26:55.994Z,16.01
2019-04-28T22:29:27.419Z,16.09
2019-04-28T22:31:59.306Z,16.14
2019-04-28T22:34:29.869Z,16.17
2019-04-28T22:37:00.467Z,16.01
2019-04-28T22:39:31.400Z,16.07
2019-04-28T22:42:02.304Z,16.05
2019-04-28T22:44:32.926Z,16.01
2019-04-28T22:47:03.701Z,15.92
2019-04-28T22:49:34.284Z,15.86
2019-04-28T22:52:04.949Z,15.81
2019-04-28T22:54:54.837Z,15.80
2019-04-28T22:57:47.273Z,15.83
2019-04-28T23:00:38.383Z,15.95
2019-04-28T23:03:10.603Z,15.97
2019-04-28T23:05:41.684Z,16.03
2019-04-28T23:08:12.553Z,16.01
2019-04-28T23:10:44.482Z,16.00
2019-04-28T23:13:15.125Z,15.88
2019-04-28T23:15:45.721Z,15.82
2019-04-28T23:18:16.725Z,15.69
2019-04-28T23:20:50.381Z,15.65
2019-04-28T23:23:21.101Z,15.56
2019-04-28T23:25:51.956Z,15.50
2019-04-28T23:28:22.727Z,15.46
2019-04-28T23:30:53.480Z,15.40
2019-04-28T23:33:24.141Z,15.33
2019-04-28T23:35:54.951Z,15.21
2019-04-28T23:38:25.966Z,15.15
2019-04-28T23:41:07.291Z,15.17
2019-04-28T23:43:37.873Z,15.23
2019-04-28T23:46:08.369Z,15.33
2019-04-28T23:48:40.225Z,15.45
2019-04-28T23:51:29.019Z,15.54
2019-04-28T23:54:04.762Z,15.56
2019-04-28T23:56:35.711Z,15.63
2019-04-28T23:59:06.639Z,15.64
